Bradley, South Dakota
Current Conditions -  °F | °C
As of 9:53 PM on Saturday 22 Nov 2014 (Local Time) from KATY Reporting Station
Broken Clouds Broken Clouds  
Wind Chill: 27°   Ceiling: 11000
Heat Index: 34°   Visibility: 9mi
Dew Point: 31°   Wind: 8mph
Humidity: 89%   Direction: 170°S
Pressure: 29.39"   Gusts: NA
Location:  45.09°N, 97.64°W
Report Text: KATY 230353Z AUTO 17007KT 9SM BKN110 01/M01 A2939 RMK AO2 SLP971 T00111006
Loading
Personal Weather Stations






























Interactive Weather Map New forecast layout! Learn more

10-Day Weather Forecast

Advertisements
Track Severe Weather on mobile